createdAt,value
2023-01-06T00:01:45.562Z,85.96
2023-01-06T00:04:17.699Z,85.97
2023-01-06T00:06:47.473Z,85.81
2023-01-06T00:09:16.885Z,85.97
2023-01-06T00:11:46.344Z,86.05
2023-01-06T00:14:15.732Z,86.12
2023-01-06T00:16:45.088Z,86.42
2023-01-06T00:19:14.868Z,86.51
2023-01-06T00:21:46.867Z,86.94
2023-01-06T00:24:16.217Z,86.89
2023-01-06T00:26:45.594Z,86.88
2023-01-06T00:29:15.229Z,86.88
2023-01-06T00:31:44.638Z,87.11
2023-01-06T00:34:14.194Z,87.29
2023-01-06T00:36:43.591Z,87.48
2023-01-06T00:39:17.271Z,87.56
2023-01-06T00:41:59.275Z,87.46
2023-01-06T00:44:28.664Z,87.40
2023-01-06T00:46:58.294Z,87.59
2023-01-06T00:49:27.936Z,87.62
2023-01-06T00:51:58.041Z,87.54
2023-01-06T00:54:30.092Z,87.50
2023-01-06T00:56:59.905Z,87.40
2023-01-06T00:59:29.684Z,87.71
2023-01-06T01:02:00.783Z,87.50
2023-01-06T01:04:30.816Z,87.89
2023-01-06T01:07:01.146Z,87.94
2023-01-06T01:09:34.142Z,88.05
2023-01-06T01:12:15.612Z,88.06
2023-01-06T01:14:49.033Z,87.79
2023-01-06T01:17:20.572Z,88.06
2023-01-06T01:19:50.866Z,87.95
2023-01-06T01:22:20.927Z,88.13
2023-01-06T01:24:53.233Z,88.20
2023-01-06T01:27:22.979Z,88.24
2023-01-06T01:29:52.366Z,88.13
2023-01-06T01:32:22.256Z,88.33
2023-01-06T01:34:51.647Z,88.11
2023-01-06T01:37:21.048Z,88.15
2023-01-06T01:39:53.069Z,88.25
2023-01-06T01:42:23.975Z,88.22
2023-01-06T01:44:59.750Z,88.63
2023-01-06T01:47:44.226Z,88.59
2023-01-06T01:50:30.367Z,88.48
2023-01-06T01:53:04.763Z,88.50
2023-01-06T01:55:38.127Z,88.54
2023-01-06T01:58:17.542Z,88.53
2023-01-06T02:00:47.193Z,88.67
2023-01-06T02:03:18.014Z,88.92
2023-01-06T02:06:02.201Z,88.79
2023-01-06T02:08:38.019Z,88.80
2023-01-06T02:11:11.697Z,88.82
2023-01-06T02:13:44.605Z,88.86
2023-01-06T02:16:36.624Z,88.80
2023-01-06T02:19:20.680Z,88.64
2023-01-06T02:22:07.669Z,88.66
2023-01-06T02:25:07.976Z,88.57
2023-01-06T02:28:02.267Z,88.57
2023-01-06T02:31:19.519Z,88.35
2023-01-06T02:33:57.481Z,88.41
2023-01-06T02:36:35.977Z,88.36
2023-01-06T02:39:17.736Z,88.23
2023-01-06T02:41:56.270Z,88.25
2023-01-06T02:44:32.159Z,88.08
2023-01-06T02:47:12.776Z,88.01
2023-01-06T02:49:54.248Z,87.80
2023-01-06T02:52:31.859Z,87.67
2023-01-06T02:55:06.915Z,87.51
2023-01-06T02:57:44.386Z,87.41
2023-01-06T03:00:19.156Z,87.36
2023-01-06T03:02:53.028Z,87.44
2023-01-06T03:05:27.564Z,87.29
2023-01-06T03:07:59.486Z,87.13
2023-01-06T03:10:31.406Z,87.02
2023-01-06T03:13:07.656Z,86.94
2023-01-06T03:15:38.787Z,86.81
2023-01-06T03:18:08.804Z,86.67
2023-01-06T03:20:42.023Z,86.51
2023-01-06T03:23:11.562Z,86.40
2023-01-06T03:25:41.520Z,86.31
2023-01-06T03:28:11.915Z,86.25
2023-01-06T03:30:49.172Z,85.95
2023-01-06T03:33:27.760Z,86.18
2023-01-06T03:36:09.684Z,85.91
2023-01-06T03:38:49.360Z,85.63
2023-01-06T03:41:48.465Z,85.77
2023-01-06T03:44:23.213Z,85.69
2023-01-06T03:46:57.591Z,85.73
2023-01-06T03:49:32.754Z,85.64
2023-01-06T03:52:10.069Z,85.58
2023-01-06T03:54:45.687Z,85.27
2023-01-06T03:57:18.795Z,85.34
2023-01-06T03:59:52.198Z,85.06
2023-01-06T04:02:23.009Z,85.06
2023-01-06T04:05:12.646Z,85.12
2023-01-06T04:07:47.274Z,84.91
2023-01-06T04:10:20.439Z,85.02
2023-01-06T04:12:52.344Z,84.66
2023-01-06T04:15:29.793Z,84.73
2023-01-06T04:18:01.168Z,84.57
2023-01-06T04:20:34.085Z,84.63
2023-01-06T04:23:20.115Z,84.51
2023-01-06T04:25:49.664Z,84.51
2023-01-06T04:28:41.957Z,84.28
2023-01-06T04:31:12.049Z,84.09
2023-01-06T04:33:42.446Z,84.05
2023-01-06T04:36:14.547Z,83.99
2023-01-06T04:38:50.079Z,83.72
2023-01-06T04:41:19.587Z,83.64
2023-01-06T04:43:49.092Z,83.55
2023-01-06T04:46:18.495Z,83.24
2023-01-06T04:48:47.860Z,83.07
2023-01-06T04:51:17.311Z,83.29
2023-01-06T04:53:47.777Z,83.23
2023-01-06T04:56:19.801Z,83.10
2023-01-06T04:58:49.215Z,83.03
2023-01-06T05:01:18.674Z,82.65
2023-01-06T05:03:48.206Z,82.82
2023-01-06T05:06:18.246Z,82.66
2023-01-06T05:08:48.730Z,82.52
2023-01-06T05:11:22.584Z,82.26
2023-01-06T05:13:52.746Z,82.37
2023-01-06T05:16:26.254Z,82.27
2023-01-06T05:18:56.838Z,82.24
2023-01-06T05:21:30.277Z,81.92
2023-01-06T05:24:00.913Z,81.94
2023-01-06T05:26:33.150Z,81.89
2023-01-06T05:29:02.560Z,82.12
2023-01-06T05:31:31.958Z,81.85
2023-01-06T05:34:02.371Z,82.17
2023-01-06T05:36:31.906Z,82.10
2023-01-06T05:39:02.288Z,81.75
2023-01-06T05:41:34.319Z,81.62
2023-01-06T05:44:03.713Z,81.02
2023-01-06T05:46:33.373Z,81.44
2023-01-06T05:49:03.385Z,80.88
2023-01-06T05:51:32.831Z,80.63
2023-01-06T05:54:02.235Z,80.44
2023-01-06T05:56:34.299Z,80.64
2023-01-06T05:59:04.647Z,80.16
2023-01-06T06:01:35.106Z,80.10
2023-01-06T06:04:04.648Z,80.00
2023-01-06T06:06:34.169Z,78.96
2023-01-06T06:09:05.106Z,78.92
2023-01-06T06:11:37.071Z,79.28
2023-01-06T06:14:06.582Z,78.73
2023-01-06T06:16:35.994Z,78.71
2023-01-06T06:19:05.490Z,78.82
2023-01-06T06:21:35.044Z,78.74
2023-01-06T06:24:04.506Z,78.31
2023-01-06T06:26:36.634Z,78.13
2023-01-06T06:29:08.204Z,77.90
2023-01-06T06:31:37.594Z,77.94
2023-01-06T06:34:07.541Z,77.84
2023-01-06T06:36:36.938Z,77.76
2023-01-06T06:39:06.972Z,77.18
2023-01-06T06:41:38.958Z,77.10
2023-01-06T06:44:08.496Z,76.25
2023-01-06T06:46:38.179Z,76.28
2023-01-06T06:49:07.647Z,75.60
2023-01-06T06:51:37.158Z,76.01
2023-01-06T06:54:07.099Z,76.09
2023-01-06T06:56:39.072Z,75.84
2023-01-06T06:59:08.772Z,75.80
2023-01-06T07:01:38.303Z,75.49
2023-01-06T07:04:08.339Z,75.58
2023-01-06T07:06:37.863Z,74.88
2023-01-06T07:09:07.257Z,75.31
2023-01-06T07:11:39.231Z,74.46
2023-01-06T07:14:08.612Z,74.07
2023-01-06T07:16:37.939Z,73.82
2023-01-06T07:19:07.290Z,73.59
2023-01-06T07:21:38.403Z,72.98
2023-01-06T07:24:08.400Z,73.26
2023-01-06T07:26:40.801Z,73.11
2023-01-06T07:29:10.164Z,73.16
2023-01-06T07:31:39.597Z,73.45
2023-01-06T07:34:09.075Z,72.88
2023-01-06T07:36:38.625Z,72.77
2023-01-06T07:39:08.348Z,73.33
2023-01-06T07:41:37.738Z,73.15
2023-01-06T07:44:17.873Z,72.65
2023-01-06T07:46:47.629Z,73.60
2023-01-06T07:49:17.054Z,73.22
2023-01-06T07:51:46.505Z,73.66
2023-01-06T07:54:16.062Z,73.13
2023-01-06T07:56:46.062Z,73.28
2023-01-06T07:59:18.048Z,73.51
2023-01-06T08:01:47.554Z,73.43
2023-01-06T08:04:17.044Z,73.01
2023-01-06T08:06:46.464Z,73.38
2023-01-06T08:09:15.873Z,73.00
2023-01-06T08:11:45.281Z,72.61
2023-01-06T08:14:15.131Z,72.34
2023-01-06T08:16:47.117Z,72.89
2023-01-06T08:19:16.481Z,73.02
2023-01-06T08:21:45.812Z,72.68
2023-01-06T08:24:15.372Z,72.50
2023-01-06T08:26:44.753Z,72.45
2023-01-06T08:29:14.114Z,72.12
2023-01-06T08:31:43.485Z,72.07
2023-01-06T08:34:16.338Z,72.09
2023-01-06T08:36:45.766Z,71.78
2023-01-06T08:39:16.918Z,72.11
2023-01-06T08:41:47.602Z,71.77
2023-01-06T08:44:16.956Z,72.11
2023-01-06T08:46:46.437Z,72.00
2023-01-06T08:49:18.422Z,71.79
2023-01-06T08:51:47.840Z,71.99
2023-01-06T08:54:17.202Z,71.77
2023-01-06T08:56:46.635Z,72.07
2023-01-06T08:59:18.344Z,71.47
2023-01-06T09:01:48.012Z,71.42
2023-01-06T09:04:20.157Z,71.51
2023-01-06T09:06:50.257Z,71.45
2023-01-06T09:09:19.792Z,71.70
2023-01-06T09:11:49.428Z,72.14
2023-01-06T09:14:18.849Z,72.38
2023-01-06T09:16:48.834Z,72.45
2023-01-06T09:19:20.995Z,72.88
2023-01-06T09:21:50.353Z,72.87
2023-01-06T09:24:19.764Z,73.04
2023-01-06T09:26:49.160Z,73.00
2023-01-06T09:29:18.853Z,72.96
2023-01-06T09:31:48.187Z,73.08
2023-01-06T09:34:17.819Z,73.20
2023-01-06T09:36:49.915Z,73.51
2023-01-06T09:39:19.599Z,73.97
2023-01-06T09:42:03.111Z,75.19
2023-01-06T09:44:34.788Z,74.80
2023-01-06T09:47:06.113Z,74.88
2023-01-06T09:49:43.418Z,75.27
2023-01-06T09:52:23.277Z,75.27
2023-01-06T09:54:59.021Z,74.83
2023-01-06T09:57:34.947Z,74.79
2023-01-06T10:00:07.228Z,74.97
2023-01-06T10:02:40.080Z,75.11
2023-01-06T10:05:22.594Z,75.50
2023-01-06T10:08:04.673Z,74.99
2023-01-06T10:10:47.158Z,75.57
2023-01-06T10:13:34.836Z,75.46
2023-01-06T10:16:12.680Z,75.98
2023-01-06T10:18:50.390Z,75.84
2023-01-06T10:21:30.523Z,76.21
2023-01-06T10:24:27.340Z,76.92
2023-01-06T10:27:00.960Z,76.79
2023-01-06T10:29:35.096Z,76.32
2023-01-06T10:32:06.413Z,76.23
2023-01-06T10:34:36.879Z,76.24
2023-01-06T10:37:15.353Z,76.40
2023-01-06T10:39:50.865Z,76.78
2023-01-06T10:42:42.163Z,77.80
2023-01-06T10:45:14.278Z,78.46
2023-01-06T10:47:45.637Z,78.49
2023-01-06T10:50:17.289Z,78.23
2023-01-06T10:52:47.696Z,78.61
2023-01-06T10:55:36.612Z,78.83
2023-01-06T10:58:15.901Z,78.49
2023-01-06T11:00:58.819Z,78.06
2023-01-06T11:03:33.864Z,79.09
2023-01-06T11:06:17.138Z,79.24
2023-01-06T11:08:47.651Z,80.72
2023-01-06T11:11:28.067Z,79.64
2023-01-06T11:14:01.632Z,79.86
2023-01-06T11:16:33.629Z,79.88
2023-01-06T11:19:06.645Z,79.33
2023-01-06T11:21:44.311Z,78.56
2023-01-06T11:24:21.924Z,78.61
2023-01-06T11:26:58.049Z,77.66
2023-01-06T11:29:30.742Z,77.90
2023-01-06T11:32:02.267Z,77.56
2023-01-06T11:34:32.338Z,76.50
2023-01-06T11:37:04.532Z,76.38
2023-01-06T11:39:37.509Z,76.37
2023-01-06T11:42:15.394Z,75.58
2023-01-06T11:44:46.242Z,75.28
2023-01-06T11:47:19.230Z,75.05
2023-01-06T11:49:51.990Z,75.17
2023-01-06T11:56:02.438Z,74.21
2023-01-06T11:58:43.206Z,73.91
2023-01-06T12:01:18.709Z,73.70
2023-01-06T12:03:51.071Z,73.70
2023-01-06T12:06:30.732Z,73.45
2023-01-06T12:09:05.570Z,73.81
2023-01-06T12:11:45.174Z,73.82
2023-01-06T12:14:28.359Z,73.70
2023-01-06T12:17:06.684Z,74.59
2023-01-06T12:19:43.208Z,73.56
2023-01-06T12:22:22.144Z,73.60
2023-01-06T12:24:53.925Z,73.40
2023-01-06T12:27:33.802Z,73.41
2023-01-06T12:30:11.509Z,73.52
2023-01-06T12:32:46.672Z,74.04
2023-01-06T12:35:20.965Z,74.17
2023-01-06T12:37:56.224Z,74.77
2023-01-06T12:40:32.160Z,74.98
2023-01-06T12:43:14.235Z,75.31
2023-01-06T12:45:57.821Z,75.50
2023-01-06T12:48:36.054Z,74.80
2023-01-06T12:51:11.823Z,74.84
2023-01-06T12:53:46.877Z,74.44
2023-01-06T12:56:46.936Z,74.57
2023-01-06T12:59:28.063Z,73.68
2023-01-06T13:02:14.705Z,73.38
2023-01-06T13:05:19.954Z,71.24
2023-01-06T13:07:56.132Z,70.96
2023-01-06T13:10:33.848Z,71.69
2023-01-06T13:13:29.622Z,71.96
2023-01-06T13:16:03.949Z,71.45
2023-01-06T13:18:44.781Z,72.10
2023-01-06T13:21:18.285Z,71.81
2023-01-06T13:24:12.752Z,72.29
2023-01-06T13:27:07.140Z,71.45
2023-01-06T13:29:50.119Z,70.95
2023-01-06T13:32:36.290Z,71.60
2023-01-06T13:35:33.003Z,71.12
2023-01-06T13:38:15.109Z,71.08
2023-01-06T13:40:46.601Z,69.72
2023-01-06T13:43:22.371Z,70.25
2023-01-06T13:45:55.178Z,73.19
2023-01-06T13:48:27.635Z,72.90
2023-01-06T13:51:01.515Z,71.13
2023-01-06T13:53:39.880Z,70.77
2023-01-06T13:56:28.141Z,71.08
2023-01-06T13:59:26.212Z,70.56
2023-01-06T14:01:59.837Z,70.46
2023-01-06T14:04:59.478Z,70.36
2023-01-06T14:07:43.028Z,68.93
2023-01-06T14:10:34.958Z,68.77
2023-01-06T14:13:08.245Z,68.99
2023-01-06T14:15:55.346Z,69.71
2023-01-06T14:18:41.339Z,69.25
2023-01-06T14:21:21.897Z,70.07
2023-01-06T14:24:02.338Z,69.64
2023-01-06T14:26:50.779Z,69.98
2023-01-06T14:30:04.081Z,69.09
2023-01-06T14:33:02.380Z,69.04
2023-01-06T14:35:35.958Z,69.69
2023-01-06T14:38:08.315Z,69.97
2023-01-06T14:40:48.326Z,70.52
2023-01-06T14:43:33.393Z,69.84
2023-01-06T14:46:11.008Z,69.40
2023-01-06T14:48:46.824Z,69.94
2023-01-06T14:51:20.472Z,70.31
2023-01-06T14:54:19.124Z,70.23
2023-01-06T14:56:59.177Z,69.57
2023-01-06T14:59:29.205Z,70.25
2023-01-06T15:02:04.034Z,69.94
2023-01-06T15:04:35.978Z,70.80
2023-01-06T15:07:18.346Z,69.83
2023-01-06T15:09:48.142Z,70.68
2023-01-06T15:12:31.744Z,70.40
2023-01-06T15:15:16.671Z,70.90
2023-01-06T15:17:46.235Z,71.01
2023-01-06T15:20:16.497Z,71.51
2023-01-06T15:22:49.336Z,71.30
2023-01-06T15:25:24.176Z,71.88
2023-01-06T15:27:57.367Z,72.49
2023-01-06T15:30:34.949Z,72.64
2023-01-06T15:33:06.473Z,73.08
2023-01-06T15:35:36.444Z,73.26
2023-01-06T15:38:17.925Z,73.45
2023-01-06T15:40:47.397Z,73.76
2023-01-06T15:43:20.220Z,73.72
2023-01-06T15:46:00.462Z,74.65
2023-01-06T15:48:32.715Z,74.77
2023-01-06T15:51:02.979Z,74.86
2023-01-06T15:53:35.167Z,75.32
2023-01-06T15:56:06.219Z,75.32
2023-01-06T15:58:41.348Z,75.62
2023-01-06T16:01:15.837Z,75.88
2023-01-06T16:03:48.609Z,75.62
2023-01-06T16:06:26.602Z,75.79
2023-01-06T16:08:56.128Z,75.57
2023-01-06T16:11:44.035Z,75.69
2023-01-06T16:14:31.442Z,75.83
2023-01-06T16:17:08.305Z,76.23
2023-01-06T16:19:40.662Z,76.21
2023-01-06T16:22:21.032Z,76.76
2023-01-06T16:24:53.603Z,76.69
2023-01-06T16:27:26.319Z,77.04
2023-01-06T16:30:10.425Z,76.54
2023-01-06T16:32:46.845Z,77.14
2023-01-06T16:35:18.864Z,77.54
2023-01-06T16:37:48.344Z,77.78
2023-01-06T16:40:20.302Z,78.25
2023-01-06T16:42:51.242Z,77.85
2023-01-06T16:45:28.838Z,78.40
2023-01-06T16:48:01.143Z,78.33
2023-01-06T16:50:35.789Z,78.31
2023-01-06T16:53:14.866Z,78.79
2023-01-06T16:55:45.732Z,78.83
2023-01-06T16:58:19.024Z,78.79
2023-01-06T17:00:51.899Z,79.50
2023-01-06T17:03:25.817Z,80.03
2023-01-06T17:05:56.300Z,80.37
2023-01-06T17:08:30.494Z,80.31
2023-01-06T17:11:04.394Z,80.32
2023-01-06T17:13:45.768Z,80.22
2023-01-06T17:16:18.331Z,80.60
2023-01-06T17:18:55.087Z,80.90
2023-01-06T17:21:27.520Z,81.09
2023-01-06T17:24:00.389Z,81.07
2023-01-06T17:26:32.580Z,81.27
2023-01-06T17:29:04.203Z,81.31
2023-01-06T17:31:36.710Z,81.18
2023-01-06T17:34:15.032Z,81.09
2023-01-06T17:36:47.229Z,80.87
2023-01-06T17:39:21.016Z,81.04
2023-01-06T17:41:50.585Z,81.46
2023-01-06T17:44:22.113Z,81.47
2023-01-06T17:46:52.576Z,81.72
2023-01-06T17:49:37.216Z,81.58
2023-01-06T17:52:17.315Z,81.12
2023-01-06T17:55:07.064Z,81.47
2023-01-06T17:57:36.645Z,81.54
2023-01-06T18:00:18.963Z,81.23
2023-01-06T18:02:51.614Z,80.80
2023-01-06T18:05:51.147Z,81.33
2023-01-06T18:08:24.219Z,81.97
2023-01-06T18:10:56.786Z,81.96
2023-01-06T18:13:27.978Z,81.97
2023-01-06T18:16:00.182Z,82.12
2023-01-06T18:18:35.656Z,82.06
2023-01-06T18:21:15.198Z,82.47
2023-01-06T18:23:49.008Z,82.25
2023-01-06T18:26:36.220Z,82.15
2023-01-06T18:29:15.614Z,82.45
2023-01-06T18:31:47.283Z,82.45
2023-01-06T18:34:29.488Z,82.51
2023-01-06T18:37:00.581Z,82.67
2023-01-06T18:39:38.898Z,82.63
2023-01-06T18:42:25.540Z,82.53
2023-01-06T18:45:02.398Z,82.31
2023-01-06T18:47:33.902Z,82.46
2023-01-06T18:50:21.776Z,82.44
2023-01-06T18:52:51.863Z,82.24
2023-01-06T18:55:28.484Z,82.65
2023-01-06T18:58:01.850Z,82.68
2023-01-06T19:00:40.654Z,82.96
2023-01-06T19:03:41.427Z,82.49
2023-01-06T19:06:46.792Z,82.67
2023-01-06T19:09:27.034Z,82.50
2023-01-06T19:12:03.822Z,83.06
2023-01-06T19:14:37.081Z,82.95
2023-01-06T19:17:06.958Z,82.28
2023-01-06T19:19:39.548Z,83.45
2023-01-06T19:22:24.111Z,83.10
2023-01-06T19:25:06.104Z,83.35
2023-01-06T19:27:42.488Z,83.22
2023-01-06T19:30:50.821Z,83.06
2023-01-06T19:33:42.499Z,83.26
2023-01-06T19:36:47.452Z,83.70
2023-01-06T19:39:35.679Z,82.96
2023-01-06T19:42:16.804Z,83.60
2023-01-06T19:44:51.647Z,83.49
2023-01-06T19:47:24.864Z,83.56
2023-01-06T19:50:00.050Z,83.27
2023-01-06T19:52:33.648Z,83.21
2023-01-06T19:55:20.946Z,83.59
2023-01-06T19:57:53.226Z,83.62
2023-01-06T20:00:34.256Z,83.48
2023-01-06T20:03:05.219Z,83.27
2023-01-06T20:05:34.634Z,83.33
2023-01-06T20:08:03.987Z,83.01
2023-01-06T20:10:33.337Z,83.29
2023-01-06T20:13:02.716Z,83.62
2023-01-06T20:15:34.675Z,83.52
2023-01-06T20:18:04.048Z,84.03
2023-01-06T20:20:33.418Z,83.59
2023-01-06T20:23:02.841Z,83.45
2023-01-06T20:25:32.237Z,83.62
2023-01-06T20:28:01.626Z,84.17
2023-01-06T20:30:33.624Z,84.10
2023-01-06T20:33:03.033Z,84.49
2023-01-06T20:35:32.461Z,84.34
2023-01-06T20:38:02.176Z,84.58
2023-01-06T20:40:31.621Z,85.01
2023-01-06T20:43:01.357Z,85.12
2023-01-06T20:45:30.792Z,84.84
2023-01-06T20:48:03.335Z,84.71
2023-01-06T20:50:32.922Z,85.53
2023-01-06T20:53:02.339Z,85.68
2023-01-06T20:55:31.699Z,85.85
2023-01-06T20:58:01.049Z,85.74
2023-01-06T21:00:30.468Z,85.45
2023-01-06T21:03:02.581Z,85.97
2023-01-06T21:05:32.015Z,86.44
2023-01-06T21:08:01.392Z,86.26
2023-01-06T21:10:30.758Z,86.60
2023-01-06T21:13:00.307Z,86.58
2023-01-06T21:15:30.552Z,86.63
2023-01-06T21:18:02.500Z,86.63
2023-01-06T21:20:32.680Z,86.78
2023-01-06T21:23:02.070Z,86.59
2023-01-06T21:25:31.707Z,86.44
2023-01-06T21:28:01.425Z,86.82
2023-01-06T21:30:32.150Z,86.41
2023-01-06T21:33:04.424Z,86.25
2023-01-06T21:35:34.147Z,86.03
2023-01-06T21:38:05.410Z,86.51
2023-01-06T21:40:35.098Z,87.12
2023-01-06T21:43:11.286Z,86.89
2023-01-06T21:45:42.596Z,86.87
2023-01-06T21:48:15.855Z,87.23
2023-01-06T21:50:47.502Z,87.11
2023-01-06T21:53:17.571Z,86.93
2023-01-06T21:55:47.292Z,87.36
2023-01-06T21:58:16.942Z,87.62
2023-01-06T22:00:46.623Z,87.70
2023-01-06T22:03:18.967Z,87.72
2023-01-06T22:05:48.981Z,87.74
2023-01-06T22:08:18.793Z,87.71
2023-01-06T22:10:48.531Z,87.07
2023-01-06T22:13:21.899Z,87.25
2023-01-06T22:15:52.681Z,87.87
2023-01-06T22:18:25.192Z,88.01
2023-01-06T22:20:55.534Z,87.72
2023-01-06T22:23:25.242Z,87.38
2023-01-06T22:25:54.959Z,87.93
2023-01-06T22:28:24.782Z,87.73
2023-01-06T22:30:56.622Z,87.36
2023-01-06T22:33:29.112Z,87.21
2023-01-06T22:35:59.945Z,87.07
2023-01-06T22:38:29.868Z,86.88
2023-01-06T22:40:59.461Z,86.35
2023-01-06T22:43:29.019Z,86.91
2023-01-06T22:45:59.587Z,87.22
2023-01-06T22:48:31.805Z,87.16
2023-01-06T22:51:04.037Z,87.14
2023-01-06T22:53:34.872Z,87.10
2023-01-06T22:56:06.317Z,87.41
2023-01-06T22:58:37.038Z,87.13
2023-01-06T23:01:08.433Z,87.04
2023-01-06T23:03:41.490Z,86.97
2023-01-06T23:06:14.165Z,86.98
2023-01-06T23:08:58.955Z,86.89
2023-01-06T23:11:32.655Z,86.89
2023-01-06T23:14:02.477Z,86.58
2023-01-06T23:16:32.473Z,85.87
2023-01-06T23:19:04.926Z,85.40
2023-01-06T23:21:35.560Z,85.05
2023-01-06T23:24:05.886Z,85.00
2023-01-06T23:26:40.255Z,85.15
2023-01-06T23:29:10.114Z,85.06
2023-01-06T23:31:41.970Z,85.12
2023-01-06T23:34:16.631Z,84.98
2023-01-06T23:36:47.217Z,84.93
2023-01-06T23:39:18.868Z,84.84
2023-01-06T23:41:48.636Z,84.78
2023-01-06T23:44:19.838Z,84.60
2023-01-06T23:46:50.131Z,84.60
2023-01-06T23:49:22.532Z,84.89
2023-01-06T23:51:52.188Z,84.81
2023-01-06T23:54:22.156Z,84.65
2023-01-06T23:56:51.817Z,84.91
2023-01-06T23:59:21.466Z,84.74
